Terminal Aerodrome Forecast
Issued by NWS

Home | Current Version | Previous Version | Text Only | Print | Product List | Glossary On
Versions: 1 2 3 4 5 6 7 8 9 10 11 12 13
401
FTUS43 KOAX 240532
TAFSNY
TAF
KSNY 240532Z 2406/2506 VRB05KT P6SM BKN100
     FM241800 02010KT P6SM BKN080
     FM242000 08011KT P6SM VCTS BKN100CB
     FM242300 06008KT P6SM BKN100=

USA.gov is the U.S. government's official web portal to all federal, state and local government web resources and services.